KVCT - Victoria Rgnl, TX, US

Issued at 0539 UTC 26 May 2019
Updated at 0855 UTC 26 May 2019
Potential Impact None Slight Moderate High
Time0851Z 26/09Z 26/10Z 26/11Z 26/12Z 26/13Z 26/14Z 26/15Z 26/16Z 26/17Z 26/18Z 26/19Z 26/20Z 26/21Z>>
Type OBS PRVL PRVL PRVL PRVL PRVL PRVL PRVL PRVL PRVL PRVL PRVL PRVL PRVL
VIS 8 >6 >6 >6 >6 >6 >6 >6 >6 >6 >6 >6 >6 >6
CIG 29 15 15 15 15 15 15 25 25 25 25 -- -- --
Cover OVC BKN BKN BKN BKN BKN BKN BKN BKN BKN BKN SCT SCT SCT
FltCat MVFR MVFR MVFR MVFR MVFR MVFR MVFR MVFR MVFR MVFR MVFR VFR VFR VFR
WX -- -- -- -- -- -- -- -- -- -- -- -- -- --
WDir 130 150 150 150 150 150 150 150 150 150 150 150 150 150
WSpd 8 7 7 7 7 7 7 12 12 12 12 16 16 16
WGst -- -- -- -- -- -- -- 18 18 18 18 24 24 24
Raw TAF
KVCT 260539Z 2606/2706 15008KT P6SM SCT025
  TEMPO 2606/2608 BKN025
  FM260800 15007KT P6SM BKN015 BKN025
  FM261500 15012G18KT P6SM BKN025 BKN035
  FM261900 15016G24KT P6SM SCT040
  FM270200 13012KT P6SM SCT015
  TEMPO 2703/2706 BKN015


Raw METAR
KVCT 260851Z AUTO 13008KT 8SM OVC029 23/22 A2999 RMK AO2 SLP154 T02330222 $
KVCT 260809Z AUTO 13008KT 8SM OVC027 24/22 A2999 RMK AO2 T02390222 $
KVCT 260751Z AUTO 14009KT 9SM 24/22 A3000 RMK AO2 SLP155 T02390222 $
KVCT 260706Z AUTO 14008KT 9SM BKN027 24/22 A2999 RMK AO2 T02390222
KVCT 260651Z AUTO 14010KT 9SM FEW031 24/22 A2999 RMK AO2 SLP153 T02390222
KVCT 260551Z AUTO 16008KT 9SM CLR 24/22 A3002 RMK AO2 SLP164 T02390222 10294 20239 403220239 50001

METAR Board
Radar Display
Forecast Discussion
For situational awareness. Not to be used for flight planning purposes.